sensor_id;sensor_type;location;lat;lon;timestamp;P1;durP1;ratioP1;P2;durP2;ratioP2
63320;SDS011;49449;48.800;9.534;2022-08-19T00:01:37;11.90;;;10.80;;
63320;SDS011;49449;48.800;9.534;2022-08-19T00:04:06;11.10;;;10.10;;
63320;SDS011;49449;48.800;9.534;2022-08-19T00:06:36;13.15;;;10.18;;
63320;SDS011;49449;48.800;9.534;2022-08-19T00:09:07;10.27;;;9.38;;
63320;SDS011;49449;48.800;9.534;2022-08-19T00:11:37;10.48;;;9.57;;
63320;SDS011;49449;48.800;9.534;2022-08-19T00:14:08;10.45;;;9.45;;
63320;SDS011;49449;48.800;9.534;2022-08-19T00:16:37;9.75;;;8.80;;
63320;SDS011;49449;48.800;9.534;2022-08-19T00:19:05;9.05;;;8.20;;
63320;SDS011;49449;48.800;9.534;2022-08-19T00:21:34;11.18;;;10.07;;
63320;SDS011;49449;48.800;9.534;2022-08-19T00:24:04;10.50;;;9.60;;
63320;SDS011;49449;48.800;9.534;2022-08-19T00:26:35;10.50;;;9.60;;
63320;SDS011;49449;48.800;9.534;2022-08-19T00:29:03;9.90;;;9.00;;
63320;SDS011;49449;48.800;9.534;2022-08-19T00:31:32;10.65;;;9.55;;
63320;SDS011;49449;48.800;9.534;2022-08-19T00:34:00;10.05;;;9.15;;
63320;SDS011;49449;48.800;9.534;2022-08-19T00:36:29;9.82;;;8.93;;
63320;SDS011;49449;48.800;9.534;2022-08-19T00:38:58;10.40;;;9.50;;
63320;SDS011;49449;48.800;9.534;2022-08-19T00:41:28;10.60;;;9.60;;
63320;SDS011;49449;48.800;9.534;2022-08-19T00:43:56;10.55;;;9.52;;
63320;SDS011;49449;48.800;9.534;2022-08-19T00:46:26;10.82;;;9.73;;
63320;SDS011;49449;48.800;9.534;2022-08-19T00:48:54;11.88;;;10.77;;
63320;SDS011;49449;48.800;9.534;2022-08-19T00:51:23;10.18;;;9.27;;
63320;SDS011;49449;48.800;9.534;2022-08-19T00:53:52;11.45;;;10.35;;
63320;SDS011;49449;48.800;9.534;2022-08-19T00:56:22;11.95;;;10.75;;
63320;SDS011;49449;48.800;9.534;2022-08-19T00:58:52;10.45;;;9.45;;
63320;SDS011;49449;48.800;9.534;2022-08-19T01:01:21;10.25;;;9.25;;
63320;SDS011;49449;48.800;9.534;2022-08-19T01:03:49;10.32;;;9.23;;
63320;SDS011;49449;48.800;9.534;2022-08-19T01:06:17;11.43;;;10.27;;
63320;SDS011;49449;48.800;9.534;2022-08-19T01:08:45;10.77;;;9.77;;
63320;SDS011;49449;48.800;9.534;2022-08-19T01:11:13;10.82;;;9.82;;
63320;SDS011;49449;48.800;9.534;2022-08-19T01:13:41;11.00;;;9.38;;
63320;SDS011;49449;48.800;9.534;2022-08-19T01:16:10;11.57;;;10.40;;
63320;SDS011;49449;48.800;9.534;2022-08-19T01:18:40;10.80;;;9.80;;
63320;SDS011;49449;48.800;9.534;2022-08-19T01:21:10;10.40;;;9.40;;
63320;SDS011;49449;48.800;9.534;2022-08-19T01:23:44;10.75;;;9.77;;
63320;SDS011;49449;48.800;9.534;2022-08-19T01:26:13;10.35;;;9.45;;
63320;SDS011;49449;48.800;9.534;2022-08-19T01:31:12;11.50;;;10.40;;
63320;SDS011;49449;48.800;9.534;2022-08-19T01:33:42;11.20;;;10.00;;
63320;SDS011;49449;48.800;9.534;2022-08-19T01:36:11;11.73;;;10.52;;
63320;SDS011;49449;48.800;9.534;2022-08-19T01:38:42;11.45;;;10.35;;
63320;SDS011;49449;48.800;9.534;2022-08-19T01:41:12;11.48;;;10.40;;
63320;SDS011;49449;48.800;9.534;2022-08-19T01:43:40;11.70;;;10.50;;
63320;SDS011;49449;48.800;9.534;2022-08-19T01:46:08;10.07;;;9.18;;
63320;SDS011;49449;48.800;9.534;2022-08-19T01:48:37;9.75;;;8.82;;
63320;SDS011;49449;48.800;9.534;2022-08-19T01:51:06;10.43;;;9.52;;
63320;SDS011;49449;48.800;9.534;2022-08-19T01:53:37;11.77;;;10.52;;
63320;SDS011;49449;48.800;9.534;2022-08-19T01:56:06;11.18;;;10.10;;
63320;SDS011;49449;48.800;9.534;2022-08-19T01:58:37;11.32;;;10.32;;
63320;SDS011;49449;48.800;9.534;2022-08-19T02:01:08;11.10;;;10.00;;
63320;SDS011;49449;48.800;9.534;2022-08-19T02:03:36;11.10;;;10.02;;
63320;SDS011;49449;48.800;9.534;2022-08-19T02:06:04;11.10;;;10.05;;
63320;SDS011;49449;48.800;9.534;2022-08-19T02:08:33;11.60;;;10.40;;
63320;SDS011;49449;48.800;9.534;2022-08-19T02:11:04;11.30;;;9.98;;
63320;SDS011;49449;48.800;9.534;2022-08-19T02:13:33;10.73;;;9.73;;
63320;SDS011;49449;48.800;9.534;2022-08-19T02:16:03;11.82;;;10.63;;
63320;SDS011;49449;48.800;9.534;2022-08-19T02:18:31;12.05;;;10.40;;
63320;SDS011;49449;48.800;9.534;2022-08-19T02:20:59;12.13;;;10.80;;
63320;SDS011;49449;48.800;9.534;2022-08-19T02:23:27;11.77;;;10.68;;
63320;SDS011;49449;48.800;9.534;2022-08-19T02:25:55;11.43;;;10.30;;
63320;SDS011;49449;48.800;9.534;2022-08-19T02:28:23;11.55;;;10.20;;
63320;SDS011;49449;48.800;9.534;2022-08-19T02:30:52;11.20;;;10.10;;
63320;SDS011;49449;48.800;9.534;2022-08-19T02:33:20;11.13;;;10.02;;
63320;SDS011;49449;48.800;9.534;2022-08-19T02:35:47;10.85;;;9.77;;
63320;SDS011;49449;48.800;9.534;2022-08-19T02:38:15;12.85;;;11.55;;
63320;SDS011;49449;48.800;9.534;2022-08-19T02:40:52;12.35;;;11.25;;
63320;SDS011;49449;48.800;9.534;2022-08-19T02:43:21;12.63;;;11.32;;
63320;SDS011;49449;48.800;9.534;2022-08-19T02:45:50;12.23;;;11.00;;
63320;SDS011;49449;48.800;9.534;2022-08-19T02:48:19;11.93;;;10.73;;
63320;SDS011;49449;48.800;9.534;2022-08-19T02:50:49;12.55;;;11.25;;
63320;SDS011;49449;48.800;9.534;2022-08-19T02:53:22;12.80;;;11.30;;
63320;SDS011;49449;48.800;9.534;2022-08-19T02:55:50;12.57;;;11.25;;
63320;SDS011;49449;48.800;9.534;2022-08-19T02:58:18;11.70;;;10.60;;
63320;SDS011;49449;48.800;9.534;2022-08-19T03:00:48;11.02;;;9.98;;
63320;SDS011;49449;48.800;9.534;2022-08-19T03:03:18;12.35;;;11.15;;
63320;SDS011;49449;48.800;9.534;2022-08-19T03:05:47;12.38;;;11.20;;
63320;SDS011;49449;48.800;9.534;2022-08-19T03:08:15;13.93;;;12.63;;
63320;SDS011;49449;48.800;9.534;2022-08-19T03:10:43;11.90;;;10.70;;
63320;SDS011;49449;48.800;9.534;2022-08-19T03:13:13;13.38;;;12.07;;
63320;SDS011;49449;48.800;9.534;2022-08-19T03:15:43;13.23;;;11.85;;
63320;SDS011;49449;48.800;9.534;2022-08-19T03:18:13;13.48;;;11.82;;
63320;SDS011;49449;48.800;9.534;2022-08-19T03:20:44;13.50;;;12.10;;
63320;SDS011;49449;48.800;9.534;2022-08-19T03:23:14;11.57;;;10.27;;
63320;SDS011;49449;48.800;9.534;2022-08-19T03:25:43;12.45;;;11.25;;
63320;SDS011;49449;48.800;9.534;2022-08-19T03:28:13;13.73;;;12.43;;
63320;SDS011;49449;48.800;9.534;2022-08-19T03:30:43;12.25;;;10.88;;
63320;SDS011;49449;48.800;9.534;2022-08-19T03:33:22;12.10;;;10.90;;
63320;SDS011;49449;48.800;9.534;2022-08-19T03:38:42;12.88;;;11.57;;
63320;SDS011;49449;48.800;9.534;2022-08-19T03:41:14;13.68;;;12.27;;
63320;SDS011;49449;48.800;9.534;2022-08-19T03:43:43;13.68;;;12.30;;
63320;SDS011;49449;48.800;9.534;2022-08-19T03:46:13;12.45;;;11.25;;
63320;SDS011;49449;48.800;9.534;2022-08-19T03:48:46;11.73;;;10.43;;
63320;SDS011;49449;48.800;9.534;2022-08-19T03:51:18;11.25;;;10.15;;
63320;SDS011;49449;48.800;9.534;2022-08-19T03:53:47;13.88;;;11.90;;
63320;SDS011;49449;48.800;9.534;2022-08-19T03:56:16;12.45;;;11.15;;
63320;SDS011;49449;48.800;9.534;2022-08-19T03:58:45;13.27;;;11.93;;
63320;SDS011;49449;48.800;9.534;2022-08-19T04:01:15;12.98;;;11.63;;
63320;SDS011;49449;48.800;9.534;2022-08-19T04:03:46;13.23;;;11.93;;
63320;SDS011;49449;48.800;9.534;2022-08-19T04:06:14;12.88;;;11.57;;
63320;SDS011;49449;48.800;9.534;2022-08-19T04:08:45;13.73;;;11.77;;
63320;SDS011;49449;48.800;9.534;2022-08-19T04:11:14;13.48;;;12.07;;
63320;SDS011;49449;48.800;9.534;2022-08-19T04:13:46;12.48;;;10.32;;
63320;SDS011;49449;48.800;9.534;2022-08-19T04:16:15;12.43;;;11.13;;
63320;SDS011;49449;48.800;9.534;2022-08-19T04:18:43;13.20;;;11.90;;
63320;SDS011;49449;48.800;9.534;2022-08-19T04:21:15;14.10;;;12.68;;
63320;SDS011;49449;48.800;9.534;2022-08-19T04:23:46;13.32;;;11.88;;
63320;SDS011;49449;48.800;9.534;2022-08-19T04:26:15;13.43;;;12.07;;
63320;SDS011;49449;48.800;9.534;2022-08-19T04:28:45;14.88;;;13.30;;
63320;SDS011;49449;48.800;9.534;2022-08-19T04:31:14;13.25;;;11.85;;
63320;SDS011;49449;48.800;9.534;2022-08-19T04:33:46;13.68;;;12.25;;
63320;SDS011;49449;48.800;9.534;2022-08-19T04:36:17;14.98;;;13.02;;
63320;SDS011;49449;48.800;9.534;2022-08-19T04:38:48;13.48;;;12.13;;
63320;SDS011;49449;48.800;9.534;2022-08-19T04:41:16;13.75;;;12.20;;
63320;SDS011;49449;48.800;9.534;2022-08-19T04:44:13;13.38;;;11.98;;
63320;SDS011;49449;48.800;9.534;2022-08-19T04:46:44;13.13;;;11.60;;
63320;SDS011;49449;48.800;9.534;2022-08-19T04:49:14;12.98;;;11.57;;
63320;SDS011;49449;48.800;9.534;2022-08-19T04:51:44;13.20;;;11.63;;
63320;SDS011;49449;48.800;9.534;2022-08-19T04:54:15;12.38;;;11.07;;
63320;SDS011;49449;48.800;9.534;2022-08-19T04:56:45;13.38;;;11.98;;
63320;SDS011;49449;48.800;9.534;2022-08-19T04:59:15;14.43;;;12.85;;
63320;SDS011;49449;48.800;9.534;2022-08-19T05:01:44;13.57;;;12.13;;
63320;SDS011;49449;48.800;9.534;2022-08-19T05:04:16;13.20;;;11.77;;
63320;SDS011;49449;48.800;9.534;2022-08-19T05:06:46;14.30;;;12.15;;
63320;SDS011;49449;48.800;9.534;2022-08-19T05:09:16;12.57;;;11.38;;
63320;SDS011;49449;48.800;9.534;2022-08-19T05:11:44;14.30;;;12.80;;
63320;SDS011;49449;48.800;9.534;2022-08-19T05:14:11;13.55;;;12.15;;
63320;SDS011;49449;48.800;9.534;2022-08-19T05:16:40;13.73;;;11.75;;
63320;SDS011;49449;48.800;9.534;2022-08-19T05:19:08;14.05;;;12.15;;
63320;SDS011;49449;48.800;9.534;2022-08-19T05:21:53;13.32;;;11.93;;
63320;SDS011;49449;48.800;9.534;2022-08-19T05:24:40;13.90;;;12.13;;
63320;SDS011;49449;48.800;9.534;2022-08-19T05:27:16;13.63;;;12.20;;
63320;SDS011;49449;48.800;9.534;2022-08-19T05:29:44;14.90;;;12.23;;
63320;SDS011;49449;48.800;9.534;2022-08-19T05:32:12;13.32;;;11.93;;
63320;SDS011;49449;48.800;9.534;2022-08-19T05:34:39;14.13;;;12.70;;
63320;SDS011;49449;48.800;9.534;2022-08-19T05:37:07;14.75;;;12.48;;
63320;SDS011;49449;48.800;9.534;2022-08-19T05:39:36;14.02;;;12.38;;
63320;SDS011;49449;48.800;9.534;2022-08-19T05:42:07;15.20;;;12.85;;
63320;SDS011;49449;48.800;9.534;2022-08-19T05:44:38;14.07;;;12.60;;
63320;SDS011;49449;48.800;9.534;2022-08-19T05:47:10;15.13;;;13.50;;
63320;SDS011;49449;48.800;9.534;2022-08-19T05:52:09;14.88;;;12.63;;
63320;SDS011;49449;48.800;9.534;2022-08-19T05:54:39;16.90;;;12.77;;
63320;SDS011;49449;48.800;9.534;2022-08-19T05:57:10;16.65;;;13.43;;
63320;SDS011;49449;48.800;9.534;2022-08-19T05:59:38;15.98;;;13.38;;
63320;SDS011;49449;48.800;9.534;2022-08-19T06:02:05;15.88;;;13.82;;
63320;SDS011;49449;48.800;9.534;2022-08-19T06:04:34;16.52;;;13.45;;
63320;SDS011;49449;48.800;9.534;2022-08-19T06:07:02;15.88;;;14.20;;
63320;SDS011;49449;48.800;9.534;2022-08-19T06:09:30;15.70;;;13.82;;
63320;SDS011;49449;48.800;9.534;2022-08-19T06:11:58;15.32;;;13.50;;
63320;SDS011;49449;48.800;9.534;2022-08-19T06:14:32;16.45;;;13.20;;
63320;SDS011;49449;48.800;9.534;2022-08-19T06:17:01;15.35;;;13.40;;
63320;SDS011;49449;48.800;9.534;2022-08-19T06:19:32;15.35;;;13.13;;
63320;SDS011;49449;48.800;9.534;2022-08-19T06:21:59;17.70;;;14.45;;
63320;SDS011;49449;48.800;9.534;2022-08-19T06:24:28;15.93;;;14.23;;
63320;SDS011;49449;48.800;9.534;2022-08-19T06:26:58;16.20;;;14.50;;
63320;SDS011;49449;48.800;9.534;2022-08-19T06:29:27;17.40;;;14.15;;
63320;SDS011;49449;48.800;9.534;2022-08-19T06:31:58;16.77;;;14.68;;
63320;SDS011;49449;48.800;9.534;2022-08-19T06:34:28;17.00;;;15.27;;
63320;SDS011;49449;48.800;9.534;2022-08-19T06:36:58;17.25;;;15.45;;
63320;SDS011;49449;48.800;9.534;2022-08-19T06:39:29;16.23;;;14.50;;
63320;SDS011;49449;48.800;9.534;2022-08-19T06:42:00;16.77;;;14.85;;
63320;SDS011;49449;48.800;9.534;2022-08-19T06:44:30;18.17;;;15.70;;
63320;SDS011;49449;48.800;9.534;2022-08-19T06:47:03;16.65;;;14.90;;
63320;SDS011;49449;48.800;9.534;2022-08-19T06:49:33;17.83;;;14.88;;
63320;SDS011;49449;48.800;9.534;2022-08-19T06:52:02;18.30;;;16.23;;
63320;SDS011;49449;48.800;9.534;2022-08-19T06:54:31;18.75;;;16.80;;
63320;SDS011;49449;48.800;9.534;2022-08-19T06:57:00;15.70;;;13.95;;
63320;SDS011;49449;48.800;9.534;2022-08-19T06:59:29;16.08;;;14.38;;
63320;SDS011;49449;48.800;9.534;2022-08-19T07:01:59;16.88;;;15.00;;
63320;SDS011;49449;48.800;9.534;2022-08-19T07:04:30;20.40;;;16.42;;
63320;SDS011;49449;48.800;9.534;2022-08-19T07:07:01;18.67;;;15.63;;
63320;SDS011;49449;48.800;9.534;2022-08-19T07:09:32;18.95;;;16.08;;
63320;SDS011;49449;48.800;9.534;2022-08-19T07:14:31;17.83;;;15.88;;
63320;SDS011;49449;48.800;9.534;2022-08-19T07:17:03;16.65;;;14.95;;
63320;SDS011;49449;48.800;9.534;2022-08-19T07:19:34;18.17;;;15.50;;
63320;SDS011;49449;48.800;9.534;2022-08-19T07:22:04;17.00;;;14.95;;
63320;SDS011;49449;48.800;9.534;2022-08-19T07:24:33;18.42;;;16.50;;
63320;SDS011;49449;48.800;9.534;2022-08-19T07:27:02;19.20;;;16.83;;
63320;SDS011;49449;48.800;9.534;2022-08-19T07:29:32;18.23;;;15.90;;
63320;SDS011;49449;48.800;9.534;2022-08-19T07:32:02;19.52;;;16.92;;
63320;SDS011;49449;48.800;9.534;2022-08-19T07:34:31;18.42;;;16.52;;
63320;SDS011;49449;48.800;9.534;2022-08-19T07:37:04;16.63;;;14.90;;
63320;SDS011;49449;48.800;9.534;2022-08-19T07:39:33;18.65;;;15.30;;
63320;SDS011;49449;48.800;9.534;2022-08-19T07:42:04;17.98;;;16.08;;
63320;SDS011;49449;48.800;9.534;2022-08-19T07:44:33;19.27;;;16.98;;
63320;SDS011;49449;48.800;9.534;2022-08-19T07:47:02;19.52;;;17.33;;
63320;SDS011;49449;48.800;9.534;2022-08-19T07:49:31;17.13;;;15.32;;
63320;SDS011;49449;48.800;9.534;2022-08-19T07:52:00;18.27;;;15.13;;
63320;SDS011;49449;48.800;9.534;2022-08-19T07:54:32;19.00;;;17.00;;
63320;SDS011;49449;48.800;9.534;2022-08-19T07:57:02;18.95;;;16.35;;
63320;SDS011;49449;48.800;9.534;2022-08-19T07:59:30;18.77;;;16.77;;
63320;SDS011;49449;48.800;9.534;2022-08-19T08:01:59;17.90;;;16.00;;
63320;SDS011;49449;48.800;9.534;2022-08-19T08:04:28;21.55;;;19.27;;
63320;SDS011;49449;48.800;9.534;2022-08-19T08:07:15;20.55;;;17.98;;
63320;SDS011;49449;48.800;9.534;2022-08-19T08:10:02;18.30;;;15.82;;
63320;SDS011;49449;48.800;9.534;2022-08-19T08:12:33;18.95;;;16.58;;
63320;SDS011;49449;48.800;9.534;2022-08-19T08:15:08;21.25;;;18.95;;
63320;SDS011;49449;48.800;9.534;2022-08-19T08:17:38;21.15;;;18.60;;
63320;SDS011;49449;48.800;9.534;2022-08-19T08:20:07;19.40;;;16.80;;
63320;SDS011;49449;48.800;9.534;2022-08-19T08:22:35;17.40;;;15.63;;
63320;SDS011;49449;48.800;9.534;2022-08-19T08:25:22;18.25;;;15.90;;
63320;SDS011;49449;48.800;9.534;2022-08-19T08:27:51;18.25;;;16.13;;
63320;SDS011;49449;48.800;9.534;2022-08-19T08:30:20;17.70;;;15.80;;
63320;SDS011;49449;48.800;9.534;2022-08-19T08:32:50;15.20;;;13.70;;
63320;SDS011;49449;48.800;9.534;2022-08-19T08:35:20;17.95;;;15.93;;
63320;SDS011;49449;48.800;9.534;2022-08-19T08:37:50;17.42;;;15.55;;
63320;SDS011;49449;48.800;9.534;2022-08-19T08:40:23;17.33;;;15.52;;
63320;SDS011;49449;48.800;9.534;2022-08-19T08:42:57;17.17;;;15.38;;
63320;SDS011;49449;48.800;9.534;2022-08-19T08:45:32;19.25;;;17.25;;
63320;SDS011;49449;48.800;9.534;2022-08-19T08:50:32;18.77;;;16.70;;
63320;SDS011;49449;48.800;9.534;2022-08-19T08:53:07;17.77;;;15.63;;
63320;SDS011;49449;48.800;9.534;2022-08-19T08:55:37;17.45;;;14.63;;
63320;SDS011;49449;48.800;9.534;2022-08-19T08:58:10;15.88;;;14.30;;
63320;SDS011;49449;48.800;9.534;2022-08-19T09:00:43;17.20;;;15.30;;
63320;SDS011;49449;48.800;9.534;2022-08-19T09:03:18;17.17;;;15.38;;
63320;SDS011;49449;48.800;9.534;2022-08-19T09:05:49;18.67;;;16.08;;
63320;SDS011;49449;48.800;9.534;2022-08-19T09:08:29;16.50;;;14.70;;
63320;SDS011;49449;48.800;9.534;2022-08-19T09:11:08;19.42;;;17.42;;
63320;SDS011;49449;48.800;9.534;2022-08-19T09:13:42;16.20;;;14.48;;
63320;SDS011;49449;48.800;9.534;2022-08-19T09:16:19;16.13;;;14.43;;
63320;SDS011;49449;48.800;9.534;2022-08-19T09:18:51;16.00;;;13.60;;
63320;SDS011;49449;48.800;9.534;2022-08-19T09:21:20;15.25;;;13.65;;
63320;SDS011;49449;48.800;9.534;2022-08-19T09:26:21;15.52;;;13.30;;
63320;SDS011;49449;48.800;9.534;2022-08-19T09:28:51;15.32;;;13.73;;
63320;SDS011;49449;48.800;9.534;2022-08-19T09:31:21;14.88;;;13.25;;
63320;SDS011;49449;48.800;9.534;2022-08-19T09:33:51;16.92;;;14.32;;
63320;SDS011;49449;48.800;9.534;2022-08-19T09:36:23;13.75;;;12.35;;
63320;SDS011;49449;48.800;9.534;2022-08-19T09:38:55;16.40;;;13.63;;
63320;SDS011;49449;48.800;9.534;2022-08-19T09:41:25;14.95;;;13.15;;
63320;SDS011;49449;48.800;9.534;2022-08-19T09:43:54;18.38;;;13.55;;
63320;SDS011;49449;48.800;9.534;2022-08-19T09:46:24;15.18;;;12.82;;
63320;SDS011;49449;48.800;9.534;2022-08-19T09:48:54;14.32;;;12.82;;
63320;SDS011;49449;48.800;9.534;2022-08-19T09:51:25;14.30;;;12.80;;
63320;SDS011;49449;48.800;9.534;2022-08-19T09:53:58;15.05;;;13.45;;
63320;SDS011;49449;48.800;9.534;2022-08-19T09:56:29;13.63;;;12.15;;
63320;SDS011;49449;48.800;9.534;2022-08-19T09:58:57;16.73;;;12.57;;
63320;SDS011;49449;48.800;9.534;2022-08-19T10:01:26;12.27;;;11.05;;
63320;SDS011;49449;48.800;9.534;2022-08-19T10:03:57;14.40;;;12.38;;
63320;SDS011;49449;48.800;9.534;2022-08-19T10:06:27;13.73;;;11.88;;
63320;SDS011;49449;48.800;9.534;2022-08-19T10:08:59;13.55;;;11.88;;
63320;SDS011;49449;48.800;9.534;2022-08-19T10:11:28;17.15;;;15.38;;
63320;SDS011;49449;48.800;9.534;2022-08-19T10:13:56;13.88;;;12.38;;
63320;SDS011;49449;48.800;9.534;2022-08-19T10:16:24;15.85;;;14.15;;
63320;SDS011;49449;48.800;9.534;2022-08-19T10:18:52;13.90;;;12.50;;
63320;SDS011;49449;48.800;9.534;2022-08-19T10:21:21;14.93;;;13.27;;
63320;SDS011;49449;48.800;9.534;2022-08-19T10:23:52;14.50;;;12.90;;
63320;SDS011;49449;48.800;9.534;2022-08-19T10:26:24;15.52;;;12.75;;
63320;SDS011;49449;48.800;9.534;2022-08-19T10:28:55;18.95;;;16.95;;
63320;SDS011;49449;48.800;9.534;2022-08-19T10:31:25;15.75;;;14.00;;
63320;SDS011;49449;48.800;9.534;2022-08-19T10:33:57;20.73;;;16.75;;
63320;SDS011;49449;48.800;9.534;2022-08-19T10:36:28;15.07;;;13.38;;
63320;SDS011;49449;48.800;9.534;2022-08-19T10:38:58;17.83;;;16.02;;
63320;SDS011;49449;48.800;9.534;2022-08-19T10:41:30;17.48;;;14.48;;
63320;SDS011;49449;48.800;9.534;2022-08-19T10:44:02;17.25;;;15.27;;
63320;SDS011;49449;48.800;9.534;2022-08-19T10:46:33;15.20;;;13.60;;
63320;SDS011;49449;48.800;9.534;2022-08-19T10:49:04;15.07;;;13.57;;
63320;SDS011;49449;48.800;9.534;2022-08-19T10:51:32;15.75;;;13.48;;
63320;SDS011;49449;48.800;9.534;2022-08-19T10:54:18;14.43;;;12.93;;
63320;SDS011;49449;48.800;9.534;2022-08-19T10:56:46;16.52;;;14.05;;
63320;SDS011;49449;48.800;9.534;2022-08-19T10:59:22;13.82;;;12.43;;
63320;SDS011;49449;48.800;9.534;2022-08-19T11:01:58;16.35;;;13.80;;
63320;SDS011;49449;48.800;9.534;2022-08-19T11:04:27;14.32;;;12.60;;
63320;SDS011;49449;48.800;9.534;2022-08-19T11:06:55;15.07;;;13.48;;
63320;SDS011;49449;48.800;9.534;2022-08-19T11:09:24;14.90;;;13.30;;
63320;SDS011;49449;48.800;9.534;2022-08-19T11:11:58;13.68;;;11.63;;
63320;SDS011;49449;48.800;9.534;2022-08-19T11:14:27;13.68;;;12.10;;
63320;SDS011;49449;48.800;9.534;2022-08-19T11:16:56;16.17;;;14.48;;
63320;SDS011;49449;48.800;9.534;2022-08-19T11:19:24;15.98;;;14.35;;
63320;SDS011;49449;48.800;9.534;2022-08-19T11:21:53;18.25;;;16.08;;
63320;SDS011;49449;48.800;9.534;2022-08-19T11:24:22;16.00;;;14.40;;
63320;SDS011;49449;48.800;9.534;2022-08-19T11:29:23;13.27;;;11.98;;
63320;SDS011;49449;48.800;9.534;2022-08-19T11:31:55;14.85;;;13.35;;
63320;SDS011;49449;48.800;9.534;2022-08-19T11:34:23;14.63;;;13.05;;
63320;SDS011;49449;48.800;9.534;2022-08-19T11:36:54;15.02;;;13.52;;
63320;SDS011;49449;48.800;9.534;2022-08-19T11:39:24;14.00;;;12.40;;
63320;SDS011;49449;48.800;9.534;2022-08-19T11:41:54;12.93;;;11.63;;
63320;SDS011;49449;48.800;9.534;2022-08-19T11:44:22;13.20;;;11.93;;
63320;SDS011;49449;48.800;9.534;2022-08-19T11:46:50;14.52;;;13.07;;
63320;SDS011;49449;48.800;9.534;2022-08-19T11:49:20;13.57;;;12.05;;
63320;SDS011;49449;48.800;9.534;2022-08-19T11:51:48;14.90;;;13.35;;
63320;SDS011;49449;48.800;9.534;2022-08-19T11:54:17;13.15;;;11.88;;
63320;SDS011;49449;48.800;9.534;2022-08-19T11:56:45;14.52;;;13.13;;
63320;SDS011;49449;48.800;9.534;2022-08-19T11:59:15;13.35;;;12.07;;
63320;SDS011;49449;48.800;9.534;2022-08-19T12:01:43;12.90;;;11.60;;
63320;SDS011;49449;48.800;9.534;2022-08-19T12:04:11;12.90;;;11.50;;
63320;SDS011;49449;48.800;9.534;2022-08-19T12:06:40;13.38;;;11.82;;
63320;SDS011;49449;48.800;9.534;2022-08-19T12:09:09;13.65;;;12.25;;
63320;SDS011;49449;48.800;9.534;2022-08-19T12:11:38;13.90;;;12.45;;
63320;SDS011;49449;48.800;9.534;2022-08-19T12:14:08;15.50;;;13.90;;
63320;SDS011;49449;48.800;9.534;2022-08-19T12:19:07;17.15;;;14.70;;
63320;SDS011;49449;48.800;9.534;2022-08-19T12:21:35;15.45;;;13.77;;
63320;SDS011;49449;48.800;9.534;2022-08-19T12:24:05;13.82;;;12.38;;
63320;SDS011;49449;48.800;9.534;2022-08-19T12:26:34;14.32;;;12.32;;
63320;SDS011;49449;48.800;9.534;2022-08-19T12:29:03;14.32;;;12.35;;
63320;SDS011;49449;48.800;9.534;2022-08-19T12:31:31;13.30;;;11.88;;
63320;SDS011;49449;48.800;9.534;2022-08-19T12:33:59;13.38;;;11.98;;
63320;SDS011;49449;48.800;9.534;2022-08-19T12:36:28;12.65;;;11.10;;
63320;SDS011;49449;48.800;9.534;2022-08-19T12:38:57;12.18;;;10.68;;
63320;SDS011;49449;48.800;9.534;2022-08-19T12:41:27;14.23;;;11.32;;
63320;SDS011;49449;48.800;9.534;2022-08-19T12:43:55;13.32;;;11.77;;
63320;SDS011;49449;48.800;9.534;2022-08-19T12:46:23;15.32;;;13.38;;
63320;SDS011;49449;48.800;9.534;2022-08-19T12:48:51;13.65;;;12.20;;
63320;SDS011;49449;48.800;9.534;2022-08-19T12:51:19;14.48;;;12.98;;
63320;SDS011;49449;48.800;9.534;2022-08-19T12:53:47;15.10;;;13.43;;
63320;SDS011;49449;48.800;9.534;2022-08-19T12:56:16;15.40;;;13.80;;
63320;SDS011;49449;48.800;9.534;2022-08-19T12:58:48;14.68;;;13.18;;
63320;SDS011;49449;48.800;9.534;2022-08-19T13:01:16;15.05;;;13.55;;
63320;SDS011;49449;48.800;9.534;2022-08-19T13:03:45;15.20;;;12.90;;
63320;SDS011;49449;48.800;9.534;2022-08-19T13:06:14;13.65;;;12.13;;
63320;SDS011;49449;48.800;9.534;2022-08-19T13:08:42;15.88;;;14.38;;
63320;SDS011;49449;48.800;9.534;2022-08-19T13:11:10;14.07;;;12.65;;
63320;SDS011;49449;48.800;9.534;2022-08-19T13:13:40;14.07;;;11.52;;
63320;SDS011;49449;48.800;9.534;2022-08-19T13:16:11;12.10;;;10.68;;
63320;SDS011;49449;48.800;9.534;2022-08-19T13:18:41;12.38;;;11.15;;
63320;SDS011;49449;48.800;9.534;2022-08-19T13:23:39;13.25;;;11.68;;
63320;SDS011;49449;48.800;9.534;2022-08-19T13:26:08;12.88;;;11.57;;
63320;SDS011;49449;48.800;9.534;2022-08-19T13:28:37;13.55;;;12.00;;
63320;SDS011;49449;48.800;9.534;2022-08-19T13:31:26;14.90;;;13.38;;
63320;SDS011;49449;48.800;9.534;2022-08-19T13:34:14;14.68;;;12.45;;
63320;SDS011;49449;48.800;9.534;2022-08-19T13:36:43;14.90;;;13.15;;
63320;SDS011;49449;48.800;9.534;2022-08-19T13:39:11;12.38;;;11.07;;
63320;SDS011;49449;48.800;9.534;2022-08-19T13:41:42;14.35;;;12.85;;
63320;SDS011;49449;48.800;9.534;2022-08-19T13:44:14;14.30;;;12.80;;
63320;SDS011;49449;48.800;9.534;2022-08-19T13:46:46;13.00;;;11.70;;
63320;SDS011;49449;48.800;9.534;2022-08-19T13:49:18;12.98;;;11.50;;
63320;SDS011;49449;48.800;9.534;2022-08-19T13:51:46;13.25;;;11.85;;
63320;SDS011;49449;48.800;9.534;2022-08-19T13:54:14;14.43;;;12.95;;
63320;SDS011;49449;48.800;9.534;2022-08-19T13:56:42;12.85;;;11.55;;
63320;SDS011;49449;48.800;9.534;2022-08-19T13:59:11;13.40;;;12.00;;
63320;SDS011;49449;48.800;9.534;2022-08-19T14:01:39;13.75;;;12.25;;
63320;SDS011;49449;48.800;9.534;2022-08-19T14:04:09;11.48;;;10.38;;
63320;SDS011;49449;48.800;9.534;2022-08-19T14:06:37;9.02;;;8.07;;
63320;SDS011;49449;48.800;9.534;2022-08-19T14:09:05;10.55;;;9.45;;
63320;SDS011;49449;48.800;9.534;2022-08-19T14:11:33;8.57;;;7.70;;
63320;SDS011;49449;48.800;9.534;2022-08-19T14:14:01;8.68;;;7.78;;
63320;SDS011;49449;48.800;9.534;2022-08-19T14:16:29;10.73;;;9.68;;
63320;SDS011;49449;48.800;9.534;2022-08-19T14:18:57;9.85;;;8.85;;
63320;SDS011;49449;48.800;9.534;2022-08-19T14:21:29;11.18;;;10.07;;
63320;SDS011;49449;48.800;9.534;2022-08-19T14:23:57;11.80;;;10.70;;
63320;SDS011;49449;48.800;9.534;2022-08-19T14:26:25;10.15;;;9.10;;
63320;SDS011;49449;48.800;9.534;2022-08-19T14:28:53;12.32;;;11.13;;
63320;SDS011;49449;48.800;9.534;2022-08-19T14:31:24;14.35;;;12.85;;
63320;SDS011;49449;48.800;9.534;2022-08-19T14:33:55;13.23;;;11.82;;
63320;SDS011;49449;48.800;9.534;2022-08-19T14:36:24;13.93;;;12.15;;
63320;SDS011;49449;48.800;9.534;2022-08-19T14:38:53;13.25;;;11.95;;
63320;SDS011;49449;48.800;9.534;2022-08-19T14:41:22;12.90;;;11.52;;
63320;SDS011;49449;48.800;9.534;2022-08-19T14:43:51;14.13;;;12.70;;
63320;SDS011;49449;48.800;9.534;2022-08-19T14:46:21;14.68;;;13.25;;
63320;SDS011;49449;48.800;9.534;2022-08-19T14:48:51;14.32;;;12.40;;
63320;SDS011;49449;48.800;9.534;2022-08-19T14:51:20;13.27;;;11.93;;
63320;SDS011;49449;48.800;9.534;2022-08-19T14:53:50;12.52;;;11.20;;
63320;SDS011;49449;48.800;9.534;2022-08-19T14:56:20;12.38;;;11.07;;
63320;SDS011;49449;48.800;9.534;2022-08-19T14:58:49;12.88;;;11.57;;
63320;SDS011;49449;48.800;9.534;2022-08-19T15:01:17;12.93;;;11.52;;
63320;SDS011;49449;48.800;9.534;2022-08-19T15:03:47;14.88;;;13.38;;